METAR Data
IDs: Format: Raw Decoded Include TAF

Data at: 1343 UTC 26 Feb 2021

VHHH 261330Z 11004KT 7000 -RA FEW007 SCT030 21/20 Q1011 NOSIG